Time;durP1;ratioP1;P1;durP2;ratioP2;P2;SDS_P1;SDS_P2;PMS_P1;PMS_P2;Temp;Humidity;BMP_temperature;BMP_pressure;BME280_temperature;BME280_humidity;BME280_pressure;Samples;Min_cycle;Max_cycle;Signal;HPM_P1;HPM_P2
2022/10/04 00:01:50;;;;;;;4.15;1.83;;;24.00;59.90;;;;;;5050890;28;20039;-66
2022/10/04 00:04:31;;;;;;;4.97;1.50;;;24.30;62.80;;;;;;5059688;28;20029;-66
2022/10/04 00:07:11;;;;;;;3.10;1.30;;;24.50;59.20;;;;;;5047927;28;20025;-67
2022/10/04 00:09:57;;;;;;;5.60;1.83;;;24.30;55.30;;;;;;5049613;28;20065;-66
2022/10/04 00:12:29;;;;;;;3.47;1.55;;;24.30;57.70;;;;;;5062651;28;20452;-66
2022/10/04 00:15:00;;;;;;;3.50;1.30;;;24.00;55.90;;;;;;5064293;28;20470;-66
2022/10/04 00:17:35;;;;;;;6.25;2.35;;;23.50;56.30;;;;;;5046514;28;20057;-66
2022/10/04 00:20:24;;;;;;;6.95;2.00;;;23.60;61.20;;;;;;5062164;28;20528;-66
2022/10/04 00:23:27;;;;;;;7.65;2.30;;;23.70;61.80;;;;;;5049480;28;20084;-66
2022/10/04 00:25:58;;;;;;;10.93;3.10;;;24.20;61.30;;;;;;5038949;28;20084;-66
2022/10/04 00:28:25;;;;;;;11.63;3.00;;;24.30;55.10;;;;;;5049966;28;20139;-65
2022/10/04 00:31:09;;;;;;;11.43;2.85;;;24.00;58.40;;;;;;5058860;28;20028;-65
2022/10/04 00:33:47;;;;;;;8.52;2.10;;;24.10;62.00;;;;;;5069188;28;20093;-65
2022/10/04 00:36:37;;;;;;;9.18;2.65;;;24.40;61.30;;;;;;5049127;28;20037;-65
2022/10/04 00:39:04;;;;;;;8.20;3.35;;;24.40;56.20;;;;;;5047670;28;20025;-65
2022/10/04 00:41:57;;;;;;;9.20;2.90;;;24.10;57.90;;;;;;5051304;28;20025;-65
2022/10/04 00:44:39;;;;;;;6.35;2.30;;;24.30;59.90;;;;;;5029544;28;20032;-66
2022/10/04 00:47:47;;;;;;;6.95;2.08;;;24.30;59.20;;;;;;5048954;28;20107;-66
2022/10/04 00:50:42;;;;;;;9.90;2.10;;;24.50;60.70;;;;;;5046024;28;20108;-65
2022/10/04 00:53:28;;;;;;;9.35;2.95;;;24.60;58.00;;;;;;5044974;28;20036;-66
2022/10/04 00:56:00;;;;;;;5.68;2.65;;;24.60;59.00;;;;;;5048036;28;20458;-65
2022/10/04 00:58:54;;;;;;;7.93;2.63;;;24.70;60.00;;;;;;5047717;28;20094;-67
2022/10/04 01:01:26;;;;;;;3.30;1.50;;;24.80;57.90;;;;;;5050516;28;20037;-66
2022/10/04 01:03:56;;;;;;;5.72;1.40;;;24.70;54.50;;;;;;5068989;28;20573;-66
2022/10/04 01:06:25;;;;;;;6.88;1.83;;;24.70;56.70;;;;;;5070564;28;20420;-65
2022/10/04 01:08:55;;;;;;;2.20;0.98;;;24.90;56.00;;;;;;5070354;28;20032;-66
2022/10/04 01:11:29;;;;;;;3.67;1.15;;;24.60;57.10;;;;;;5055839;28;20100;-65
2022/10/04 01:14:05;;;;;;;2.95;0.80;;;24.90;56.90;;;;;;5038719;28;20381;-65
2022/10/04 01:16:37;;;;;;;3.17;1.10;;;25.00;54.50;;;;;;5050203;28;20060;-66
2022/10/04 01:19:23;;;;;;;1.45;0.80;;;24.80;53.80;;;;;;5052964;28;20048;-65
2022/10/04 01:22:13;;;;;;;1.63;0.80;;;24.70;54.60;;;;;;5056677;28;20028;-65
2022/10/04 01:24:45;;;;;;;2.25;0.60;;;24.60;54.30;;;;;;5054698;28;20166;-65
2022/10/04 01:27:30;;;;;;;2.00;0.75;;;24.50;52.90;;;;;;5059203;28;20021;-65
2022/10/04 01:29:58;;;;;;;2.17;0.88;;;24.50;52.40;;;;;;5051474;28;20128;-66
2022/10/04 01:32:25;;;;;;;1.88;0.70;;;24.60;54.70;;;;;;5055289;28;20020;-65
2022/10/04 01:34:52;;;;;;;2.10;0.63;;;24.80;52.90;;;;;;5055213;28;20024;-65
2022/10/04 01:37:20;;;;;;;3.60;2.00;;;24.80;52.40;;;;;;5056563;28;20128;-65
2022/10/04 01:39:47;;;;;;;2.03;0.70;;;25.10;53.10;;;;;;5055872;28;20185;-65
2022/10/04 01:42:32;;;;;;;1.58;0.57;;;25.30;52.90;;;;;;5055123;28;20107;-65
2022/10/04 01:45:13;;;;;;;;;;;25.30;50.70;;;;;;5066125;28;20481;-65
2022/10/04 01:48:10;;;;;;;2.40;0.70;;;25.40;50.80;;;;;;5056406;28;19909;-65
2022/10/04 01:50:44;;;;;;;2.60;0.50;;;25.30;49.50;;;;;;5049281;28;20055;-65
2022/10/04 01:53:23;;;;;;;2.70;0.70;;;25.50;51.30;;;;;;5048432;28;20020;-65
2022/10/04 01:56:13;;;;;;;1.75;0.68;;;25.90;50.00;;;;;;5052317;28;20041;-64
2022/10/04 01:59:04;;;;;;;2.70;0.70;;;25.90;48.50;;;;;;5050747;28;20428;-65
2022/10/04 02:01:38;;;;;;;6.50;1.08;;;26.20;47.10;;;;;;5066649;28;20024;-66
2022/10/04 02:04:33;;;;;;;1.20;0.60;;;26.00;47.80;;;;;;5062456;28;20032;-65
2022/10/04 02:07:02;;;;;;;2.90;0.65;;;26.20;50.00;;;;;;5051102;28;20112;-64
2022/10/04 02:09:34;;;;;;;1.58;0.80;;;26.60;48.40;;;;;;5043157;28;20048;-65
2022/10/04 02:12:02;;;;;;;3.25;0.60;;;27.00;48.60;;;;;;5046448;28;20493;-65
2022/10/04 02:14:32;;;;;;;2.22;0.68;;;27.20;49.00;;;;;;5038719;28;20082;-66
2022/10/04 02:17:02;;;;;;;2.92;0.80;;;27.50;46.60;;;;;;5039372;28;20045;-64
2022/10/04 02:19:37;;;;;;;3.90;0.77;;;27.60;45.10;;;;;;5042565;28;20055;-67
2022/10/04 02:22:06;;;;;;;1.45;0.68;;;27.60;47.50;;;;;;5047067;28;20123;-65
2022/10/04 02:24:36;;;;;;;1.20;0.47;;;27.50;45.00;;;;;;5047428;28;20025;-64
2022/10/04 02:27:05;;;;;;;1.95;0.60;;;27.10;45.40;;;;;;5045837;28;20025;-63
2022/10/04 02:29:32;;;;;;;4.22;0.80;;;26.90;46.30;;;;;;5049451;28;20033;-64
2022/10/04 02:34:47;;;;;;;5.80;0.80;;;26.90;44.80;;;;;;5046026;28;20440;-63
2022/10/04 02:37:15;;;;;;;2.30;0.80;;;26.60;44.50;;;;;;5046135;28;20033;-65
2022/10/04 02:39:53;;;;;;;8.63;2.92;;;26.40;44.20;;;;;;5042379;28;20048;-64
2022/10/04 02:42:35;;;;;;;2.13;0.60;;;26.30;45.40;;;;;;5049999;28;20397;-65
2022/10/04 02:45:23;;;;;;;1.52;0.60;;;26.00;46.30;;;;;;5048729;28;20017;-64
2022/10/04 02:48:00;;;;;;;1.65;0.80;;;25.90;46.00;;;;;;5049401;28;20037;-65
2022/10/04 02:50:45;;;;;;;1.52;0.70;;;25.80;46.30;;;;;;5043457;28;20130;-67
2022/10/04 02:53:25;;;;;;;37.35;6.53;;;25.70;45.60;;;;;;5048651;28;20029;-65
2022/10/04 02:55:57;;;;;;;3.88;1.35;;;25.70;48.70;;;;;;5049096;28;20033;-65
2022/10/04 02:58:26;;;;;;;3.95;0.90;;;26.30;47.10;;;;;;5047061;28;20016;-65
2022/10/04 03:00:59;;;;;;;6.18;1.98;;;26.30;43.80;;;;;;5047126;28;20109;-62
2022/10/04 03:03:29;;;;;;;2.53;0.98;;;26.30;44.40;;;;;;5046811;28;20385;-66
2022/10/04 03:06:09;;;;;;;40.60;10.23;;;26.60;44.80;;;;;;5049611;28;20029;-66
2022/10/04 03:08:53;;;;;;;5.63;1.60;;;26.60;46.80;;;;;;5048214;28;20545;-65
2022/10/04 03:11:24;;;;;;;7.93;2.20;;;26.60;45.40;;;;;;5047471;28;20093;-66
2022/10/04 03:13:56;;;;;;;1.73;0.60;;;26.50;44.20;;;;;;5050361;28;20029;-65
2022/10/04 03:16:24;;;;;;;1.10;0.60;;;26.20;44.20;;;;;;5048310;28;20032;-66
2022/10/04 03:18:56;;;;;;;2.35;0.70;;;26.20;45.50;;;;;;5047037;28;20021;-65
2022/10/04 03:21:24;;;;;;;3.20;0.80;;;26.10;44.90;;;;;;5053816;28;20489;-66
2022/10/04 03:23:53;;;;;;;1.95;0.70;;;26.10;45.70;;;;;;5047594;28;20017;-68
2022/10/04 03:26:27;;;;;;;1.05;0.63;;;26.10;44.70;;;;;;5047775;28;20027;-65
2022/10/04 03:28:56;;;;;;;1.77;0.52;;;26.20;45.40;;;;;;5047104;28;20493;-68
2022/10/04 03:31:26;;;;;;;9.88;0.90;;;26.30;43.40;;;;;;5050565;28;20517;-67
2022/10/04 03:33:57;;;;;;;2.35;0.60;;;26.30;45.30;;;;;;5048622;28;20021;-67
2022/10/04 03:36:26;;;;;;;1.17;0.60;;;26.60;44.90;;;;;;5051582;28;20055;-66
2022/10/04 03:38:56;;;;;;;0.93;0.70;;;26.60;43.60;;;;;;5049785;28;20017;-67
2022/10/04 03:41:25;;;;;;;1.35;0.40;;;26.70;42.30;;;;;;5050842;28;20082;-67
2022/10/04 03:43:55;;;;;;;2.95;0.60;;;26.80;41.90;;;;;;5047025;28;20029;-67
2022/10/04 03:46:24;;;;;;;2.45;0.68;;;27.10;43.40;;;;;;5051542;28;20025;-66
2022/10/04 03:48:53;;;;;;;1.40;0.50;;;27.20;42.30;;;;;;5049788;28;20108;-66
2022/10/04 03:51:23;;;;;;;1.52;0.60;;;27.30;44.60;;;;;;5049186;28;20025;-67
2022/10/04 03:53:57;;;;;;;5.13;0.60;;;27.30;41.60;;;;;;5044816;28;20055;-66
2022/10/04 03:56:36;;;;;;;2.65;0.80;;;27.20;44.20;;;;;;5044112;28;20437;-67
2022/10/04 03:59:05;;;;;;;2.63;0.70;;;27.20;44.40;;;;;;5046768;28;20029;-67
2022/10/04 04:01:48;;;;;;;6.63;0.75;;;27.30;44.10;;;;;;5039945;28;20374;-67
2022/10/04 04:04:36;;;;;;;1.73;1.15;;;27.30;41.10;;;;;;5053489;28;20032;-67
2022/10/04 04:07:13;;;;;;;3.45;0.65;;;27.10;42.90;;;;;;5048871;28;20474;-68
2022/10/04 04:09:46;;;;;;;2.60;0.63;;;27.10;40.70;;;;;;5043588;28;20542;-66
2022/10/04 04:12:40;;;;;;;1.67;0.50;;;27.10;43.00;;;;;;5047323;28;20036;-66
2022/10/04 04:15:11;;;;;;;1.73;0.50;;;27.10;41.60;;;;;;5052560;28;20021;-66
2022/10/04 04:17:47;;;;;;;1.52;0.60;;;27.30;41.70;;;;;;5069821;28;20029;-65
2022/10/04 04:20:29;;;;;;;2.50;0.77;;;27.30;41.60;;;;;;5046279;28;20499;-66
2022/10/04 04:23:14;;;;;;;1.52;0.52;;;27.60;41.00;;;;;;5048541;28;20058;-66
2022/10/04 04:25:47;;;;;;;1.20;0.55;;;27.80;41.60;;;;;;5053459;28;20486;-66
2022/10/04 04:28:32;;;;;;;0.95;0.52;;;27.90;39.70;;;;;;5061362;28;20025;-65
2022/10/04 04:31:33;;;;;;;1.33;0.60;;;27.60;40.80;;;;;;5055679;28;20032;-65
2022/10/04 04:34:05;;;;;;;1.33;0.75;;;27.80;40.30;;;;;;5033202;28;20490;-66
2022/10/04 04:36:39;;;;;;;3.28;1.00;;;28.20;40.70;;;;;;5068792;28;20059;-66
2022/10/04 04:42:14;;;;;;;1.48;0.63;;;28.60;40.90;;;;;;5049388;28;20051;-65
2022/10/04 04:44:50;;;;;;;2.30;0.70;;;28.70;39.50;;;;;;5048512;28;20090;-65
2022/10/04 04:47:35;;;;;;;1.27;0.70;;;28.80;40.40;;;;;;5055589;28;21940;-66
2022/10/04 04:50:07;;;;;;;2.08;0.70;;;28.80;43.00;;;;;;5053334;28;20064;-66
2022/10/04 04:52:36;;;;;;;3.28;0.80;;;28.80;40.30;;;;;;5050664;28;20035;-66
2022/10/04 04:55:05;;;;;;;5.10;1.13;;;27.80;45.20;;;;;;5061452;28;20021;-66
2022/10/04 04:57:33;;;;;;;3.40;0.88;;;27.10;47.40;;;;;;5049415;28;20036;-66
2022/10/04 05:00:02;;;;;;;3.45;0.88;;;26.40;47.60;;;;;;5054923;28;20031;-65
2022/10/04 05:02:33;;;;;;;2.92;1.00;;;25.40;49.40;;;;;;5058730;28;20021;-66
2022/10/04 05:05:19;;;;;;;6.10;1.00;;;24.70;50.40;;;;;;5044787;28;20567;-65
2022/10/04 05:07:47;;;;;;;4.50;1.13;;;24.20;52.10;;;;;;5047542;28;20032;-65
2022/10/04 05:10:34;;;;;;;3.55;1.00;;;23.80;54.10;;;;;;5057421;28;20036;-65
2022/10/04 05:13:03;;;;;;;4.28;1.05;;;23.40;56.70;;;;;;5049248;28;20052;-65
2022/10/04 05:15:36;;;;;;;9.02;1.10;;;23.30;57.70;;;;;;5057395;28;20040;-65
2022/10/04 05:18:16;;;;;;;3.85;1.40;;;23.20;60.30;;;;;;5063138;28;20032;-65
2022/10/04 05:20:52;;;;;;;3.65;0.88;;;23.20;61.10;;;;;;5050281;28;20024;-66
2022/10/04 05:23:20;;;;;;;7.60;1.10;;;23.20;61.70;;;;;;5052508;28;20036;-65
2022/10/04 05:25:49;;;;;;;5.35;0.98;;;22.80;61.70;;;;;;5051194;28;20647;-65
2022/10/04 05:28:17;;;;;;;5.40;1.20;;;22.60;62.40;;;;;;5054777;28;20385;-66
2022/10/04 05:30:50;;;;;;;8.45;1.48;;;22.50;63.20;;;;;;5052063;28;20393;-66
2022/10/04 05:33:38;;;;;;;6.90;1.20;;;22.10;64.80;;;;;;5043354;28;20060;-66
2022/10/04 05:36:12;;;;;;;4.32;1.58;;;22.00;65.70;;;;;;5050291;28;20400;-66
2022/10/04 05:39:02;;;;;;;4.10;0.93;;;21.80;67.80;;;;;;5057239;28;20066;-66
2022/10/04 05:41:46;;;;;;;6.30;1.23;;;21.70;70.40;;;;;;5050440;28;20111;-65
2022/10/04 05:44:28;;;;;;;3.50;1.45;;;21.50;72.10;;;;;;5052101;28;20025;-66
2022/10/04 05:46:59;;;;;;;2.38;0.75;;;21.40;72.70;;;;;;5056126;28;20037;-66
2022/10/04 05:49:42;;;;;;;4.60;1.20;;;21.30;72.00;;;;;;5047843;28;20032;-66
2022/10/04 05:52:29;;;;;;;3.70;1.00;;;21.20;72.40;;;;;;5044130;28;20035;-66
2022/10/04 05:55:13;;;;;;;3.20;1.08;;;21.00;73.00;;;;;;5044921;28;20104;-66
2022/10/04 05:58:17;;;;;;;8.23;1.27;;;21.00;72.80;;;;;;5052102;28;20031;-66
2022/10/04 06:01:02;;;;;;;4.30;1.20;;;21.00;73.80;;;;;;5049886;28;20285;-65
2022/10/04 06:03:54;;;;;;;3.08;0.98;;;21.00;72.60;;;;;;5045010;28;20028;-65
2022/10/04 06:06:55;;;;;;;1.85;0.70;;;21.00;73.10;;;;;;5040288;28;20490;-65
2022/10/04 06:09:40;;;;;;;4.35;1.20;;;20.60;72.20;;;;;;5043856;28;20571;-66
2022/10/04 06:12:32;;;;;;;4.88;1.40;;;20.30;74.00;;;;;;5060341;28;20014;-65
2022/10/04 06:15:08;;;;;;;4.07;0.95;;;20.20;73.80;;;;;;5063229;28;20032;-65
2022/10/04 06:18:07;;;;;;;3.70;1.27;;;20.10;74.50;;;;;;5047589;28;20107;-65
2022/10/04 06:20:53;;;;;;;3.17;1.10;;;19.80;75.10;;;;;;5045225;28;20037;-64
2022/10/04 06:23:22;;;;;;;5.35;0.98;;;19.80;76.40;;;;;;5050426;28;20390;-65
2022/10/04 06:25:51;;;;;;;3.75;1.13;;;19.50;75.90;;;;;;5040017;28;20087;-65
2022/10/04 06:28:36;;;;;;;1.58;0.82;;;19.50;77.30;;;;;;5059814;28;20029;-66
2022/10/04 06:31:23;;;;;;;1.30;0.80;;;19.30;77.70;;;;;;5065037;28;20074;-67
2022/10/04 06:34:08;;;;;;;3.28;1.10;;;19.20;76.40;;;;;;5037619;28;20509;-66
2022/10/04 06:36:45;;;;;;;2.53;1.00;;;19.20;77.10;;;;;;5049711;28;20108;-65
2022/10/04 06:39:46;;;;;;;1.90;0.77;;;19.20;77.60;;;;;;5061766;28;20115;-66
2022/10/04 06:42:19;;;;;;;3.50;1.15;;;19.20;77.30;;;;;;5053615;28;20012;-65
2022/10/04 06:45:05;;;;;;;5.63;1.60;;;19.10;77.40;;;;;;5064430;28;20057;-66
2022/10/04 06:48:02;;;;;;;2.42;1.25;;;19.10;77.80;;;;;;5053430;28;20052;-66
2022/10/04 06:50:51;;;;;;;4.80;1.15;;;19.10;79.40;;;;;;5055211;28;20250;-66
2022/10/04 06:53:45;;;;;;;2.55;1.27;;;19.00;79.80;;;;;;5051751;28;20036;-66
2022/10/04 06:56:23;;;;;;;5.05;0.90;;;19.00;79.70;;;;;;5049351;28;20063;-67
2022/10/04 06:59:27;;;;;;;4.82;1.40;;;19.00;79.90;;;;;;5052248;28;20073;-66
2022/10/04 07:01:59;;;;;;;3.42;1.00;;;18.90;80.00;;;;;;5050797;28;20025;-65
2022/10/04 07:04:50;;;;;;;3.08;1.20;;;18.80;80.50;;;;;;5058333;28;20032;-66
2022/10/04 07:07:40;;;;;;;2.08;0.82;;;18.70;78.70;;;;;;5053441;28;20052;-62
2022/10/04 07:10:23;;;;;;;5.32;1.25;;;18.60;79.80;;;;;;5050895;28;20039;-62
2022/10/04 07:13:09;;;;;;;2.35;1.35;;;18.50;81.20;;;;;;5046968;28;20017;-63
2022/10/04 07:15:54;;;;;;;5.38;1.00;;;18.50;81.70;;;;;;5059692;28;20565;-63
2022/10/04 07:18:57;;;;;;;2.88;1.08;;;18.40;82.50;;;;;;5050561;28;20650;-63
2022/10/04 07:22:03;;;;;;;2.67;0.95;;;18.40;82.40;;;;;;5043391;28;20040;-63
2022/10/04 07:24:33;;;;;;;5.43;1.33;;;18.30;82.80;;;;;;5019906;28;20029;-63
2022/10/04 07:27:07;;;;;;;2.58;0.65;;;18.20;84.30;;;;;;5076039;28;20105;-63
2022/10/04 07:29:40;;;;;;;3.53;1.10;;;18.10;84.20;;;;;;5051637;28;20036;-62
2022/10/04 07:32:37;;;;;;;8.25;1.13;;;18.10;85.50;;;;;;5047457;28;20029;-62
2022/10/04 07:35:13;;;;;;;5.22;1.00;;;18.10;86.40;;;;;;5054330;28;20037;-62
2022/10/04 07:38:04;;;;;;;3.97;1.10;;;18.00;86.00;;;;;;5051861;28;20035;-61
2022/10/04 07:40:38;;;;;;;4.50;1.40;;;18.00;86.00;;;;;;5051965;28;20059;-63
2022/10/04 07:43:13;;;;;;;2.75;1.10;;;17.90;86.20;;;;;;5042084;28;20025;-63
2022/10/04 07:45:41;;;;;;;3.72;1.15;;;17.90;86.60;;;;;;5054655;28;20396;-63
2022/10/04 07:48:25;;;;;;;2.42;1.13;;;17.80;87.20;;;;;;5058803;28;20052;-62
2022/10/04 07:51:01;;;;;;;3.80;1.10;;;17.80;87.60;;;;;;5043942;28;20056;-64
2022/10/04 07:54:13;;;;;;;3.15;1.05;;;17.80;87.70;;;;;;5051289;28;20025;-64
2022/10/04 07:56:51;;;;;;;4.80;1.17;;;17.70;88.00;;;;;;5050757;28;20120;-64
2022/10/04 07:59:40;;;;;;;3.92;1.00;;;17.70;88.50;;;;;;5052045;28;20029;-63
2022/10/04 08:02:31;;;;;;;2.50;1.10;;;17.60;89.10;;;;;;5047472;28;20529;-62
2022/10/04 08:05:34;;;;;;;4.10;1.13;;;17.60;89.60;;;;;;5048022;28;20025;-61
2022/10/04 08:08:37;;;;;;;6.63;1.40;;;17.60;89.70;;;;;;5047132;28;20485;-62
2022/10/04 08:11:08;;;;;;;5.75;1.58;;;17.50;89.50;;;;;;5047172;28;20029;-62
2022/10/04 08:13:44;;;;;;;2.67;1.67;;;17.50;90.00;;;;;;5047289;28;20082;-64
2022/10/04 08:16:32;;;;;;;4.68;1.88;;;17.50;90.30;;;;;;5057109;28;20029;-62
2022/10/04 08:19:38;;;;;;;6.15;1.50;;;17.30;90.50;;;;;;5054457;28;20032;-70
2022/10/04 08:22:47;;;;;;;4.45;1.52;;;17.30;90.60;;;;;;5054106;28;20021;-63
2022/10/04 08:25:46;;;;;;;3.92;1.58;;;17.20;90.80;;;;;;5040330;28;20569;-63
2022/10/04 08:32:03;;;;;;;6.78;1.58;;;17.30;91.30;;;;;;5044524;28;20813;-61
2022/10/04 08:34:58;;;;;;;4.13;1.88;;;17.20;91.30;;;;;;5044951;28;20545;-61
2022/10/04 08:37:44;;;;;;;3.55;1.70;;;17.20;91.40;;;;;;5053853;28;20079;-62
2022/10/04 08:40:42;;;;;;;4.53;2.10;;;17.20;91.70;;;;;;5046590;28;20033;-64
2022/10/04 08:43:41;;;;;;;4.75;2.33;;;17.30;91.80;;;;;;5048818;28;20024;-63
2022/10/04 08:46:30;;;;;;;5.55;2.05;;;17.30;91.80;;;;;;5044366;28;20021;-63
2022/10/04 08:49:15;;;;;;;4.85;1.88;;;17.30;91.60;;;;;;5052862;28;20055;-62
2022/10/04 08:52:12;;;;;;;4.65;1.60;;;17.30;91.70;;;;;;5051083;28;20032;-62
2022/10/04 08:55:04;;;;;;;4.75;1.73;;;17.30;91.70;;;;;;5046966;28;20148;-62
2022/10/04 08:58:00;;;;;;;4.32;1.58;;;17.20;91.90;;;;;;5048870;28;20386;-63
2022/10/04 09:00:57;;;;;;;2.60;1.27;;;17.20;91.80;;;;;;5080485;28;20029;-66
2022/10/04 09:03:42;;;;;;;5.20;1.30;;;17.20;91.90;;;;;;5052653;28;20053;-64
2022/10/04 09:06:35;;;;;;;6.07;1.48;;;17.20;92.00;;;;;;5050961;28;20025;-65
2022/10/04 09:09:20;;;;;;;4.70;1.67;;;17.30;91.90;;;;;;5049814;28;20033;-62
2022/10/04 09:12:05;;;;;;;4.15;1.40;;;17.20;91.90;;;;;;5048829;28;20055;-61
2022/10/04 09:14:48;;;;;;;3.22;1.42;;;17.20;92.10;;;;;;5048494;28;20029;-64
2022/10/04 09:17:19;;;;;;;5.90;1.65;;;17.20;92.20;;;;;;5048821;28;20558;-60
2022/10/04 09:20:19;;;;;;;4.05;1.70;;;17.20;92.30;;;;;;5051595;28;20016;-64
2022/10/04 09:22:48;;;;;;;4.65;1.50;;;17.20;92.40;;;;;;5036619;28;20041;-64
2022/10/04 09:25:43;;;;;;;8.48;1.80;;;17.20;92.30;;;;;;5052102;28;20138;-63
2022/10/04 09:28:38;;;;;;;7.22;1.50;;;17.20;92.40;;;;;;5056680;28;20024;-62
2022/10/04 09:31:31;;;;;;;2.45;1.30;;;17.20;92.70;;;;;;5045603;28;20022;-63
2022/10/04 09:34:04;;;;;;;5.82;1.65;;;17.20;92.90;;;;;;5044384;28;20029;-64
2022/10/04 09:36:41;;;;;;;3.50;1.50;;;17.20;92.90;;;;;;5043671;28;20115;-63
2022/10/04 09:39:26;;;;;;;9.43;1.50;;;17.20;93.10;;;;;;5050482;28;20017;-64
2022/10/04 09:42:12;;;;;;;2.22;1.20;;;17.20;93.10;;;;;;5047471;28;20071;-63
2022/10/04 09:45:09;;;;;;;3.83;1.40;;;17.20;93.20;;;;;;5043106;28;20086;-63
2022/10/04 09:48:26;;;;;;;3.85;1.10;;;17.10;93.30;;;;;;5049364;28;20025;-62
2022/10/04 09:51:12;;;;;;;7.13;1.60;;;17.20;93.60;;;;;;5043996;28;20163;-63
2022/10/04 09:53:45;;;;;;;5.47;1.40;;;17.20;93.20;;;;;;5042969;28;20037;-62
2022/10/04 09:56:33;;;;;;;5.32;1.30;;;17.20;93.30;;;;;;5049438;28;20029;-62
2022/10/04 09:59:22;;;;;;;7.88;1.70;;;17.20;93.30;;;;;;5049465;28;20029;-62
2022/10/04 10:02:08;;;;;;;3.53;1.38;;;17.20;93.30;;;;;;5047914;28;20026;-62
2022/10/04 10:05:08;;;;;;;5.57;1.55;;;17.20;93.40;;;;;;5051210;28;20120;-62
2022/10/04 10:07:38;;;;;;;2.95;1.20;;;17.10;93.40;;;;;;5035685;28;20041;-62
2022/10/04 10:13:58;;;;;;;3.95;1.20;;;17.10;93.50;;;;;;5050844;28;20036;-61
2022/10/04 10:16:41;;;;;;;5.28;1.52;;;17.10;93.50;;;;;;5042765;28;20037;-62
2022/10/04 10:19:35;;;;;;;4.72;1.52;;;17.10;93.60;;;;;;5051916;28;20120;-62
2022/10/04 10:22:39;;;;;;;2.67;1.60;;;17.10;93.60;;;;;;5048390;28;20025;-61
2022/10/04 10:25:39;;;;;;;8.30;1.88;;;17.10;93.70;;;;;;5045640;28;20063;-62
2022/10/04 10:28:19;;;;;;;3.38;1.50;;;17.10;93.90;;;;;;5054717;28;20079;-62
2022/10/04 10:30:49;;;;;;;2.05;1.05;;;17.10;93.60;;;;;;5045848;28;20100;-62
2022/10/04 10:33:22;;;;;;;3.78;1.60;;;17.10;93.60;;;;;;5045039;28;20051;-61
2022/10/04 10:35:55;;;;;;;4.03;1.63;;;17.10;93.60;;;;;;5051039;28;20039;-61
2022/10/04 10:38:41;;;;;;;3.92;1.90;;;17.10;93.70;;;;;;5048345;28;20155;-63
2022/10/04 10:41:41;;;;;;;7.65;2.20;;;17.20;93.60;;;;;;5048846;28;20021;-62
2022/10/04 10:44:44;;;;;;;6.57;3.33;;;17.10;93.50;;;;;;5044630;28;20129;-62
2022/10/04 10:47:39;;;;;;;6.55;2.78;;;17.10;93.80;;;;;;5047974;28;20029;-61
2022/10/04 10:50:26;;;;;;;8.43;3.17;;;17.10;94.20;;;;;;5051549;28;20084;-62
2022/10/04 10:53:14;;;;;;;4.90;2.15;;;17.10;94.50;;;;;;5050699;28;20032;-61
2022/10/04 10:56:13;;;;;;;10.85;2.03;;;17.10;94.60;;;;;;5044033;28;20820;-63
2022/10/04 10:58:43;;;;;;;3.40;1.17;;;17.10;95.00;;;;;;5040100;28;20068;-62
2022/10/04 11:01:38;;;;;;;4.88;1.40;;;17.10;95.30;;;;;;5043932;28;20026;-62
2022/10/04 11:04:31;;;;;;;5.00;1.17;;;17.10;95.50;;;;;;5051929;28;20055;-61
2022/10/04 11:07:17;;;;;;;5.45;1.20;;;17.10;95.90;;;;;;5039413;28;20413;-64
2022/10/04 11:10:10;;;;;;;4.50;1.20;;;17.00;96.10;;;;;;5046531;28;20028;-63
2022/10/04 11:13:05;;;;;;;6.70;1.67;;;17.00;96.30;;;;;;5050073;28;20036;-62
2022/10/04 11:16:20;;;;;;;3.35;1.30;;;17.00;96.70;;;;;;5054283;28;20079;-63
2022/10/04 11:19:14;;;;;;;4.80;1.48;;;16.90;96.60;;;;;;5050291;28;20494;-62
2022/10/04 11:22:18;;;;;;;4.20;1.55;;;16.90;96.90;;;;;;5048568;28;20044;-62
2022/10/04 11:24:55;;;;;;;5.45;1.42;;;16.90;97.00;;;;;;5059389;28;20099;-62
2022/10/04 11:27:27;;;;;;;8.35;1.63;;;16.90;97.00;;;;;;5056977;28;20067;-61
2022/10/04 11:30:23;;;;;;;3.65;1.40;;;16.90;97.00;;;;;;5058364;28;20048;-62
2022/10/04 11:33:07;;;;;;;4.20;1.52;;;16.80;97.20;;;;;;5058376;28;20095;-63
2022/10/04 11:36:16;;;;;;;4.55;1.30;;;16.80;96.90;;;;;;5054732;28;20036;-62
2022/10/04 11:39:02;;;;;;;8.88;1.88;;;16.80;97.10;;;;;;5060188;28;20058;-62
2022/10/04 11:41:35;;;;;;;4.22;1.17;;;16.80;97.00;;;;;;5050190;28;20445;-62
2022/10/04 11:44:02;;;;;;;2.05;0.90;;;16.80;97.10;;;;;;5051438;28;20024;-62
2022/10/04 11:46:34;;;;;;;5.32;1.52;;;16.80;97.10;;;;;;5048003;28;20101;-62
2022/10/04 11:49:20;;;;;;;6.68;1.90;;;16.70;97.30;;;;;;5057746;28;20569;-62
2022/10/04 11:52:01;;;;;;;4.90;1.83;;;16.70;97.20;;;;;;5036045;28;20052;-61
2022/10/04 11:55:05;;;;;;;4.13;1.40;;;16.70;97.20;;;;;;5053546;28;20246;-63
2022/10/04 11:57:57;;;;;;;3.05;1.58;;;16.70;97.20;;;;;;5044494;28;20385;-62
2022/10/04 12:00:30;;;;;;;5.28;1.33;;;16.60;97.30;;;;;;5047157;28;20113;-62
2022/10/04 12:03:26;;;;;;;2.67;1.20;;;16.70;97.60;;;;;;5051468;28;20021;-64
2022/10/04 12:06:09;;;;;;;4.60;1.30;;;16.70;97.50;;;;;;5049638;28;20498;-61
2022/10/04 12:08:47;;;;;;;3.83;1.38;;;16.60;97.60;;;;;;5045756;28;20032;-62
2022/10/04 12:11:26;;;;;;;5.78;1.48;;;16.70;97.60;;;;;;5042896;28;20028;-62
2022/10/04 12:14:37;;;;;;;4.85;1.52;;;16.60;97.40;;;;;;5041655;28;20044;-62
2022/10/04 12:17:20;;;;;;;4.32;1.23;;;16.60;97.30;;;;;;5046810;28;20144;-62
2022/10/04 12:20:20;;;;;;;5.45;1.95;;;16.60;97.30;;;;;;5050256;28;20033;-62
2022/10/04 12:23:11;;;;;;;7.50;1.90;;;16.60;97.40;;;;;;5058892;28;20690;-62
2022/10/04 12:25:47;;;;;;;2.30;1.17;;;16.60;97.40;;;;;;5066799;28;20025;-62
2022/10/04 12:28:38;;;;;;;5.30;1.45;;;16.60;97.40;;;;;;5051472;28;20139;-62
2022/10/04 12:31:14;;;;;;;5.35;1.80;;;16.60;97.50;;;;;;5059967;28;20043;-62
2022/10/04 12:34:18;;;;;;;3.13;1.48;;;16.60;97.50;;;;;;5043726;28;20020;-63
2022/10/04 12:37:03;;;;;;;5.32;1.70;;;16.60;97.40;;;;;;5054883;28;20032;-63
2022/10/04 12:39:46;;;;;;;3.42;1.38;;;16.50;97.60;;;;;;5052601;28;20029;-62
2022/10/04 12:42:19;;;;;;;8.82;1.60;;;16.50;97.60;;;;;;5041389;28;20059;-62
2022/10/04 12:45:13;;;;;;;3.20;1.90;;;16.50;97.80;;;;;;5053574;28;20041;-62
2022/10/04 12:48:09;;;;;;;2.93;1.23;;;16.50;97.80;;;;;;5038117;28;20036;-62
2022/10/04 12:50:53;;;;;;;;;;;16.50;97.80;;;;;;5045241;28;20059;-62
2022/10/04 12:53:36;;;;;;;3.03;1.33;;;16.50;97.90;;;;;;5042870;28;19909;-63
2022/10/04 12:56:13;;;;;;;7.32;1.30;;;16.50;98.10;;;;;;5049919;28;20439;-62
2022/10/04 12:58:55;;;;;;;4.38;1.75;;;16.50;98.20;;;;;;5045084;28;20025;-62
2022/10/04 13:01:47;;;;;;;2.72;1.10;;;16.50;98.30;;;;;;5048063;28;20119;-61
2022/10/04 13:04:29;;;;;;;5.85;1.92;;;16.50;98.30;;;;;;5045539;28;20032;-62
2022/10/04 13:07:09;;;;;;;7.30;2.17;;;16.50;98.20;;;;;;5049303;28;20060;-61
2022/10/04 13:09:43;;;;;;;5.40;1.75;;;16.50;98.30;;;;;;5044849;28;20025;-61
2022/10/04 13:12:21;;;;;;;3.17;1.88;;;16.50;98.30;;;;;;5055379;28;20480;-62
2022/10/04 13:14:59;;;;;;;5.22;1.83;;;16.50;98.30;;;;;;5056942;28;20035;-62
2022/10/04 13:17:28;;;;;;;3.83;2.13;;;16.50;98.30;;;;;;5051903;28;20127;-62
2022/10/04 13:20:24;;;;;;;7.18;2.10;;;16.40;98.50;;;;;;5056690;28;20048;-62
2022/10/04 13:23:17;;;;;;;6.93;2.92;;;16.30;98.50;;;;;;5050601;28;20020;-63
2022/10/04 13:26:03;;;;;;;4.55;2.05;;;16.30;98.80;;;;;;5032638;28;20102;-62
2022/10/04 13:29:21;;;;;;;8.15;2.83;;;16.30;99.00;;;;;;5047464;28;20109;-63
2022/10/04 13:32:15;;;;;;;6.18;2.67;;;16.20;99.00;;;;;;5034241;28;20045;-63
2022/10/04 13:34:59;;;;;;;5.55;3.15;;;16.20;99.10;;;;;;5065441;28;20021;-62
2022/10/04 13:37:37;;;;;;;6.32;2.25;;;16.20;99.00;;;;;;5046461;28;20059;-63
2022/10/04 13:40:22;;;;;;;5.18;2.10;;;16.20;99.00;;;;;;5052240;28;20086;-62
2022/10/04 13:43:07;;;;;;;4.40;1.80;;;16.20;98.90;;;;;;5055486;28;20027;-62
2022/10/04 13:45:53;;;;;;;4.90;1.67;;;16.20;98.80;;;;;;5054454;28;20028;-62
2022/10/04 13:48:40;;;;;;;8.23;1.50;;;16.20;98.70;;;;;;5060198;28;20081;-62
2022/10/04 13:58:06;;;;;;;3.35;1.40;;;16.20;98.70;;;;;;5037769;28;20047;-63
2022/10/04 14:00:48;;;;;;;5.50;1.70;;;16.20;98.70;;;;;;5057700;28;20525;-62
2022/10/04 14:03:51;;;;;;;3.35;1.38;;;16.20;98.60;;;;;;5046614;28;20028;-62
2022/10/04 14:07:09;;;;;;;3.78;1.30;;;16.10;98.80;;;;;;5048490;28;20140;-62
2022/10/04 14:10:18;;;;;;;6.70;1.40;;;16.10;98.90;;;;;;5056432;28;20389;-62
2022/10/04 14:13:32;;;;;;;4.78;1.30;;;16.10;98.90;;;;;;5045293;28;20031;-62
2022/10/04 14:16:51;;;;;;;4.13;1.13;;;16.10;99.30;;;;;;5025986;28;20052;-62
2022/10/04 14:19:36;;;;;;;5.05;1.65;;;16.10;99.10;;;;;;5024318;28;20036;-62
2022/10/04 14:22:30;;;;;;;1.50;1.00;;;16.10;98.90;;;;;;5065012;28;20115;-62
2022/10/04 14:25:29;;;;;;;5.55;1.17;;;16.10;98.80;;;;;;5038896;28;20032;-63
2022/10/04 14:28:32;;;;;;;6.00;1.30;;;16.20;98.80;;;;;;5049750;28;20140;-62
2022/10/04 14:31:22;;;;;;;3.63;1.30;;;16.10;98.70;;;;;;5048866;28;20104;-62